Time;durP1;ratioP1;P1;durP2;ratioP2;P2;SDS_P1;SDS_P2;PMS_P1;PMS_P2;Temp;Humidity;BMP_temperature;BMP_pressure;BME280_temperature;BME280_humidity;BME280_pressure;Samples;Min_cycle;Max_cycle;Signal;HPM_P1;HPM_P2
2020/03/01 00:00:21;;;;;;;1.25;1.14;;;;;;;19.05;39.41;99088.94;;;;-55
2020/03/01 00:03:21;;;;;;;0.99;0.96;;;;;;;19.03;39.44;99088.40;;;;-55
2020/03/01 00:06:20;;;;;;;1.11;1.03;;;;;;;19.02;39.44;99083.92;;;;-54
2020/03/01 00:09:20;;;;;;;1.13;1.03;;;;;;;19.00;39.46;99084.20;;;;-55
2020/03/01 00:12:20;;;;;;;1.20;1.10;;;;;;;19.00;39.42;99081.37;;;;-55
2020/03/01 00:15:21;;;;;;;1.15;1.05;;;;;;;18.98;39.43;99081.31;;;;-55
2020/03/01 00:18:21;;;;;;;0.97;0.97;;;;;;;18.97;39.46;99081.23;;;;-55
2020/03/01 00:22:28;;;;;;;1.35;1.03;;;;;;;18.95;39.43;99081.00;;;;-54
2020/03/01 00:25:21;;;;;;;0.98;0.98;;;;;;;18.94;39.45;99082.23;;;;-55
2020/03/01 00:28:20;;;;;;;1.10;1.00;;;;;;;18.93;39.46;99085.14;;;;-55
2020/03/01 00:31:20;;;;;;;1.16;1.05;;;;;;;18.91;39.48;99090.20;;;;-55
2020/03/01 00:34:21;;;;;;;0.96;0.95;;;;;;;18.91;39.50;99092.86;;;;-54
2020/03/01 00:37:21;;;;;;;1.17;1.07;;;;;;;18.89;39.47;99084.14;;;;-54
2020/03/01 00:40:21;;;;;;;1.09;1.07;;;;;;;18.89;39.49;99082.60;;;;-55
2020/03/01 00:43:20;;;;;;;1.05;1.00;;;;;;;18.87;39.51;99082.98;;;;-54
2020/03/01 00:46:20;;;;;;;1.01;1.01;;;;;;;18.86;39.52;99086.47;;;;-54
2020/03/01 00:49:20;;;;;;;1.00;1.00;;;;;;;18.85;39.51;99095.64;;;;-55
2020/03/01 00:52:21;;;;;;;0.90;0.90;;;;;;;18.84;39.54;99098.12;;;;-55
2020/03/01 00:55:20;;;;;;;1.20;1.10;;;;;;;18.83;39.53;99095.70;;;;-54
2020/03/01 00:58:21;;;;;;;1.11;1.00;;;;;;;18.82;39.54;99087.37;;;;-54
2020/03/01 01:01:21;;;;;;;1.03;0.99;;;;;;;18.80;39.56;99097.02;;;;-54
2020/03/01 01:04:21;;;;;;;1.10;1.00;;;;;;;18.79;39.59;99099.01;;;;-54
2020/03/01 01:07:20;;;;;;;0.90;0.90;;;;;;;18.77;39.58;99097.98;;;;-55
2020/03/01 01:10:21;;;;;;;1.00;1.00;;;;;;;18.76;39.56;99096.36;;;;-55
2020/03/01 01:14:20;;;;;;;1.03;1.01;;;;;;;18.75;39.57;99089.31;;;;-55
2020/03/01 01:17:20;;;;;;;1.11;1.01;;;;;;;18.74;39.60;99088.17;;;;-54
2020/03/01 01:20:20;;;;;;;1.15;1.05;;;;;;;18.73;39.59;99081.89;;;;-55
2020/03/01 01:23:21;;;;;;;1.15;1.07;;;;;;;18.72;39.58;99079.59;;;;-55
2020/03/01 01:26:20;;;;;;;1.03;1.00;;;;;;;18.72;39.61;99079.87;;;;-54
2020/03/01 01:29:20;;;;;;;1.03;1.00;;;;;;;18.70;39.64;99068.45;;;;-55
2020/03/01 01:32:20;;;;;;;1.00;1.00;;;;;;;18.70;39.61;99065.43;;;;-55
2020/03/01 01:35:20;;;;;;;1.07;1.00;;;;;;;18.68;39.60;99057.36;;;;-55
2020/03/01 01:38:21;;;;;;;1.28;1.00;;;;;;;18.68;39.62;99059.96;;;;-55
2020/03/01 01:41:21;;;;;;;1.13;1.01;;;;;;;18.67;39.62;99048.80;;;;-55
2020/03/01 01:44:21;;;;;;;1.07;1.00;;;;;;;18.65;39.64;99047.34;;;;-55
2020/03/01 01:47:20;;;;;;;0.88;0.88;;;;;;;18.65;39.64;99046.34;;;;-54
2020/03/01 01:50:20;;;;;;;1.11;1.01;;;;;;;18.64;39.65;99038.13;;;;-55
2020/03/01 01:53:20;;;;;;;0.90;0.90;;;;;;;18.63;39.67;99030.64;;;;-55
2020/03/01 01:56:20;;;;;;;0.99;0.99;;;;;;;18.62;39.63;99029.31;;;;-55
2020/03/01 01:59:21;;;;;;;1.17;1.03;;;;;;;18.61;39.67;99024.34;;;;-54
2020/03/01 02:02:20;;;;;;;1.07;1.00;;;;;;;18.61;39.65;99022.44;;;;-55
2020/03/01 02:05:21;;;;;;;0.92;0.92;;;;;;;18.60;39.67;99029.16;;;;-55
2020/03/01 02:08:20;;;;;;;0.97;0.97;;;;;;;18.59;39.67;99027.88;;;;-55
2020/03/01 02:11:20;;;;;;;1.19;1.07;;;;;;;18.58;39.66;99023.43;;;;-54
2020/03/01 02:14:20;;;;;;;0.89;0.89;;;;;;;18.58;39.66;99025.91;;;;-55
2020/03/01 02:17:21;;;;;;;0.97;0.90;;;;;;;18.56;39.65;99016.29;;;;-54
2020/03/01 02:20:21;;;;;;;0.88;0.88;;;;;;;18.55;39.66;99021.75;;;;-55
2020/03/01 02:23:21;;;;;;;0.97;0.97;;;;;;;18.54;39.68;99018.25;;;;-55
2020/03/01 02:26:20;;;;;;;0.95;0.95;;;;;;;18.53;39.69;99022.80;;;;-55
2020/03/01 02:29:20;;;;;;;1.09;0.99;;;;;;;18.52;39.69;99015.69;;;;-55
2020/03/01 02:32:20;;;;;;;0.82;0.82;;;;;;;18.52;39.70;99011.48;;;;-55
2020/03/01 02:35:20;;;;;;;0.96;0.96;;;;;;;18.51;39.70;99006.10;;;;-55
2020/03/01 02:38:20;;;;;;;0.93;0.93;;;;;;;18.49;39.69;98998.06;;;;-55
2020/03/01 02:41:21;;;;;;;0.85;0.85;;;;;;;18.49;39.71;99003.05;;;;-55
2020/03/01 02:44:21;;;;;;;1.45;0.99;;;;;;;18.49;39.71;99012.67;;;;-55
2020/03/01 02:47:20;;;;;;;1.29;0.90;;;;;;;18.47;39.71;99019.41;;;;-54
2020/03/01 02:50:21;;;;;;;1.00;1.00;;;;;;;18.48;39.71;99017.16;;;;-55
2020/03/01 02:53:20;;;;;;;0.81;0.81;;;;;;;18.47;39.69;99008.61;;;;-55
2020/03/01 02:56:20;;;;;;;0.95;0.95;;;;;;;18.45;39.72;99008.83;;;;-55
2020/03/01 02:59:20;;;;;;;1.10;1.00;;;;;;;18.44;39.73;99005.69;;;;-55
2020/03/01 03:02:21;;;;;;;0.86;0.86;;;;;;;18.44;39.73;99007.70;;;;-54
2020/03/01 03:05:20;;;;;;;1.06;1.02;;;;;;;18.43;39.74;99004.94;;;;-55
2020/03/01 03:08:20;;;;;;;0.87;0.87;;;;;;;18.42;39.74;98998.95;;;;-55
2020/03/01 03:11:20;;;;;;;0.98;0.98;;;;;;;18.42;39.74;99002.06;;;;-55
2020/03/01 03:14:20;;;;;;;1.06;0.99;;;;;;;18.42;39.75;99005.74;;;;-54
2020/03/01 03:17:20;;;;;;;0.90;0.90;;;;;;;18.41;39.76;99004.55;;;;-55
2020/03/01 03:20:20;;;;;;;0.94;0.91;;;;;;;18.40;39.76;99005.19;;;;-55
2020/03/01 03:23:20;;;;;;;0.90;0.90;;;;;;;18.40;39.75;99004.86;;;;-54
2020/03/01 03:26:20;;;;;;;1.04;1.00;;;;;;;18.39;39.79;99007.41;;;;-55
2020/03/01 03:29:20;;;;;;;0.94;0.90;;;;;;;18.38;39.79;99006.88;;;;-55
2020/03/01 03:32:20;;;;;;;0.90;0.90;;;;;;;18.37;39.77;99004.68;;;;-55
2020/03/01 03:35:20;;;;;;;0.93;0.93;;;;;;;18.36;39.78;99007.36;;;;-54
2020/03/01 03:38:20;;;;;;;0.99;0.94;;;;;;;18.37;39.79;99012.70;;;;-56
2020/03/01 03:41:20;;;;;;;0.80;0.80;;;;;;;18.35;39.76;99012.34;;;;-55
2020/03/01 03:44:20;;;;;;;0.90;0.90;;;;;;;18.35;39.79;99014.25;;;;-55
2020/03/01 03:47:20;;;;;;;0.90;0.90;;;;;;;18.34;39.80;99016.47;;;;-55
2020/03/01 03:50:20;;;;;;;0.97;0.97;;;;;;;18.34;39.78;99012.06;;;;-55
2020/03/01 03:53:20;;;;;;;1.09;1.00;;;;;;;18.32;39.77;99010.77;;;;-55
2020/03/01 03:56:20;;;;;;;1.00;1.00;;;;;;;18.32;39.79;99012.08;;;;-55
2020/03/01 03:59:20;;;;;;;0.99;0.90;;;;;;;18.31;39.82;99016.86;;;;-55
2020/03/01 04:02:20;;;;;;;1.22;0.97;;;;;;;18.30;39.81;99018.47;;;;-54
2020/03/01 04:05:20;;;;;;;0.86;0.86;;;;;;;18.30;39.81;99020.38;;;;-55
2020/03/01 04:08:20;;;;;;;1.03;1.01;;;;;;;18.29;39.79;99014.36;;;;-55
2020/03/01 04:11:20;;;;;;;0.90;0.90;;;;;;;18.28;39.81;99015.11;;;;-55
2020/03/01 04:14:20;;;;;;;0.98;0.98;;;;;;;18.28;39.85;99023.16;;;;-55
2020/03/01 04:17:20;;;;;;;0.80;0.80;;;;;;;18.28;39.82;99017.15;;;;-55
2020/03/01 04:20:20;;;;;;;1.13;1.02;;;;;;;18.27;39.82;99012.61;;;;-55
2020/03/01 04:23:20;;;;;;;0.89;0.89;;;;;;;18.26;39.84;99013.52;;;;-55
2020/03/01 04:26:20;;;;;;;0.80;0.80;;;;;;;18.24;39.84;99012.83;;;;-55
2020/03/01 04:29:20;;;;;;;0.97;0.88;;;;;;;18.25;39.81;99012.89;;;;-55
2020/03/01 04:32:20;;;;;;;0.90;0.90;;;;;;;18.24;39.80;99019.01;;;;-54
2020/03/01 04:35:21;;;;;;;0.89;0.89;;;;;;;18.23;39.83;99018.35;;;;-55
2020/03/01 04:38:20;;;;;;;0.85;0.85;;;;;;;18.23;39.81;99023.30;;;;-55
2020/03/01 04:41:20;;;;;;;1.07;0.95;;;;;;;18.23;39.80;99022.36;;;;-55
2020/03/01 04:44:20;;;;;;;1.58;1.00;;;;;;;18.23;39.81;99024.44;;;;-55
2020/03/01 04:47:20;;;;;;;1.00;0.99;;;;;;;18.24;39.80;99019.91;;;;-55
2020/03/01 04:50:20;;;;;;;0.75;0.75;;;;;;;18.24;39.83;99012.89;;;;-54
2020/03/01 04:53:20;;;;;;;0.90;0.90;;;;;;;18.25;39.80;99015.09;;;;-55
2020/03/01 04:56:20;;;;;;;0.93;0.93;;;;;;;18.26;39.81;99010.37;;;;-55
2020/03/01 04:59:20;;;;;;;0.79;0.79;;;;;;;18.28;39.82;99008.48;;;;-55
2020/03/01 05:02:20;;;;;;;0.96;0.90;;;;;;;18.31;39.82;99012.58;;;;-55
2020/03/01 05:05:20;;;;;;;0.90;0.90;;;;;;;18.32;39.79;99018.45;;;;-55
2020/03/01 05:08:20;;;;;;;0.81;0.81;;;;;;;18.35;39.80;99016.42;;;;-56
2020/03/01 05:11:21;;;;;;;0.81;0.81;;;;;;;18.39;39.73;99015.42;;;;-56
2020/03/01 05:14:20;;;;;;;0.88;0.88;;;;;;;18.42;39.74;99022.95;;;;-55
2020/03/01 05:17:21;;;;;;;0.69;0.69;;;;;;;18.46;39.73;99017.72;;;;-55
2020/03/01 05:20:20;;;;;;;0.80;0.80;;;;;;;18.52;39.84;99016.59;;;;-55
2020/03/01 05:23:20;;;;;;;0.80;0.80;;;;;;;18.56;39.83;99011.52;;;;-55
2020/03/01 05:26:20;;;;;;;0.91;0.91;;;;;;;18.59;39.83;99007.91;;;;-56
2020/03/01 05:29:20;;;;;;;0.90;0.90;;;;;;;18.64;39.92;99015.78;;;;-54
2020/03/01 05:32:20;;;;;;;0.90;0.90;;;;;;;18.66;39.87;99007.08;;;;-55
2020/03/01 05:35:20;;;;;;;0.89;0.89;;;;;;;18.70;39.85;99005.67;;;;-55
2020/03/01 05:38:20;;;;;;;0.80;0.80;;;;;;;18.72;39.95;99003.20;;;;-55
2020/03/01 05:41:20;;;;;;;0.89;0.89;;;;;;;18.77;39.96;99002.39;;;;-56
2020/03/01 05:44:20;;;;;;;0.93;0.93;;;;;;;18.80;39.95;99006.98;;;;-55
2020/03/01 05:47:20;;;;;;;0.90;0.90;;;;;;;18.82;39.86;99001.44;;;;-55
2020/03/01 05:50:20;;;;;;;0.90;0.90;;;;;;;18.85;39.90;98996.80;;;;-55
2020/03/01 05:53:20;;;;;;;0.95;0.90;;;;;;;18.90;39.88;98996.65;;;;-55
2020/03/01 05:56:20;;;;;;;0.85;0.85;;;;;;;18.91;39.86;98995.87;;;;-55
2020/03/01 05:59:20;;;;;;;0.90;0.90;;;;;;;18.95;39.84;99004.16;;;;-55
2020/03/01 06:02:20;;;;;;;0.96;0.90;;;;;;;18.98;39.88;99000.27;;;;-55
2020/03/01 06:05:20;;;;;;;0.99;0.99;;;;;;;19.01;39.82;99005.20;;;;-55
2020/03/01 06:08:20;;;;;;;0.98;0.90;;;;;;;19.04;39.80;99006.60;;;;-55
2020/03/01 06:11:20;;;;;;;1.14;1.05;;;;;;;19.08;39.85;99007.10;;;;-55
2020/03/01 06:14:20;;;;;;;0.93;0.89;;;;;;;19.09;39.83;99011.73;;;;-55
2020/03/01 06:17:20;;;;;;;0.90;0.90;;;;;;;19.12;39.82;99011.78;;;;-55
2020/03/01 06:20:20;;;;;;;0.95;0.95;;;;;;;19.15;39.76;99012.95;;;;-55
2020/03/01 06:23:20;;;;;;;0.89;0.89;;;;;;;19.15;39.73;99012.55;;;;-55
2020/03/01 06:26:20;;;;;;;0.90;0.90;;;;;;;19.17;39.69;99016.27;;;;-58
2020/03/01 06:29:20;;;;;;;0.90;0.90;;;;;;;19.19;39.69;99021.27;;;;-59
2020/03/01 06:32:20;;;;;;;1.01;0.91;;;;;;;19.21;39.70;99010.10;;;;-59
2020/03/01 06:35:20;;;;;;;1.10;1.00;;;;;;;19.22;39.62;99012.64;;;;-59
2020/03/01 06:38:20;;;;;;;0.90;0.90;;;;;;;19.24;39.61;99013.41;;;;-59
2020/03/01 06:41:20;;;;;;;1.06;0.99;;;;;;;19.25;39.58;99005.51;;;;-59
2020/03/01 06:44:20;;;;;;;0.89;0.89;;;;;;;19.27;39.61;98991.39;;;;-59
2020/03/01 06:47:20;;;;;;;0.88;0.88;;;;;;;19.29;39.58;98988.02;;;;-55
2020/03/01 06:50:20;;;;;;;0.73;0.73;;;;;;;19.31;39.54;98980.83;;;;-55
2020/03/01 06:53:20;;;;;;;0.96;0.90;;;;;;;19.32;39.53;98975.19;;;;-55
2020/03/01 06:56:20;;;;;;;0.87;0.87;;;;;;;19.34;39.50;98974.53;;;;-56
2020/03/01 06:59:20;;;;;;;0.83;0.83;;;;;;;19.35;39.46;98976.67;;;;-56
2020/03/01 07:02:20;;;;;;;0.91;0.90;;;;;;;19.35;39.42;98972.41;;;;-55
2020/03/01 07:05:20;;;;;;;0.90;0.90;;;;;;;19.36;39.44;98970.83;;;;-55
2020/03/01 07:08:20;;;;;;;0.81;0.80;;;;;;;19.38;39.40;98965.32;;;;-55
2020/03/01 07:11:20;;;;;;;0.83;0.83;;;;;;;19.38;39.38;98965.52;;;;-55
2020/03/01 07:14:20;;;;;;;0.85;0.85;;;;;;;19.41;39.38;98972.58;;;;-55
2020/03/01 07:17:20;;;;;;;0.86;0.86;;;;;;;19.41;39.36;98965.88;;;;-55
2020/03/01 07:20:20;;;;;;;0.85;0.83;;;;;;;19.41;39.30;98969.40;;;;-55
2020/03/01 07:23:20;;;;;;;1.01;0.99;;;;;;;19.41;39.35;98964.71;;;;-55
2020/03/01 07:26:20;;;;;;;0.83;0.83;;;;;;;19.42;39.31;98963.34;;;;-55
2020/03/01 07:29:20;;;;;;;0.85;0.85;;;;;;;19.42;39.33;98954.78;;;;-55
2020/03/01 07:32:20;;;;;;;0.89;0.84;;;;;;;19.42;39.30;98953.80;;;;-55
2020/03/01 07:35:20;;;;;;;1.06;0.90;;;;;;;19.45;39.26;98948.56;;;;-55
2020/03/01 07:38:20;;;;;;;0.84;0.84;;;;;;;19.46;39.25;98944.92;;;;-55
2020/03/01 07:41:20;;;;;;;0.95;0.93;;;;;;;19.47;39.26;98943.41;;;;-54
2020/03/01 07:44:20;;;;;;;0.91;0.87;;;;;;;19.48;39.23;98945.20;;;;-54
2020/03/01 07:47:20;;;;;;;2.25;1.05;;;;;;;19.50;39.06;98942.89;;;;-55
2020/03/01 07:50:20;;;;;;;0.91;0.91;;;;;;;19.51;39.12;98947.67;;;;-55
2020/03/01 07:53:20;;;;;;;0.90;0.90;;;;;;;19.52;39.11;98962.19;;;;-55
2020/03/01 07:56:20;;;;;;;2.39;1.07;;;;;;;19.52;39.09;98965.94;;;;-55
2020/03/01 07:59:20;;;;;;;1.05;1.00;;;;;;;19.54;39.14;98968.92;;;;-55
2020/03/01 08:02:20;;;;;;;2.03;0.92;;;;;;;19.55;39.10;98968.52;;;;-55
2020/03/01 08:05:20;;;;;;;0.90;0.90;;;;;;;19.56;39.06;98971.81;;;;-55
2020/03/01 08:08:20;;;;;;;1.70;1.00;;;;;;;19.56;39.10;98978.00;;;;-55
2020/03/01 08:11:20;;;;;;;1.05;0.85;;;;;;;19.56;39.12;98972.05;;;;-51
2020/03/01 08:14:20;;;;;;;0.93;0.93;;;;;;;19.57;39.07;98980.61;;;;-51
2020/03/01 08:17:20;;;;;;;1.29;0.89;;;;;;;19.58;39.01;98984.08;;;;-51
2020/03/01 08:20:20;;;;;;;0.93;0.90;;;;;;;19.58;39.03;98981.39;;;;-51
2020/03/01 08:23:20;;;;;;;1.00;0.89;;;;;;;19.59;38.98;98976.97;;;;-51
2020/03/01 08:26:20;;;;;;;1.75;0.80;;;;;;;19.59;38.96;98985.94;;;;-51
2020/03/01 08:29:20;;;;;;;1.87;0.91;;;;;;;19.59;39.00;98977.47;;;;-50
2020/03/01 08:32:20;;;;;;;1.15;1.05;;;;;;;19.60;38.98;98973.23;;;;-51
2020/03/01 08:35:20;;;;;;;0.99;0.99;;;;;;;19.63;38.96;98977.62;;;;-51
2020/03/01 08:38:20;;;;;;;0.90;0.90;;;;;;;19.63;38.97;98964.31;;;;-51
2020/03/01 08:41:20;;;;;;;0.90;0.90;;;;;;;19.63;38.89;98963.74;;;;-51
2020/03/01 08:44:20;;;;;;;1.27;1.09;;;;;;;19.65;38.92;98955.32;;;;-55
2020/03/01 08:47:20;;;;;;;0.89;0.89;;;;;;;19.65;38.90;98957.16;;;;-55
2020/03/01 08:50:20;;;;;;;0.93;0.91;;;;;;;19.66;38.86;98964.55;;;;-55
2020/03/01 08:53:20;;;;;;;0.75;0.75;;;;;;;19.65;38.91;98960.94;;;;-55
2020/03/01 08:56:20;;;;;;;0.98;0.92;;;;;;;19.65;38.81;98957.25;;;;-56
2020/03/01 08:59:20;;;;;;;1.03;0.99;;;;;;;19.64;38.85;98956.13;;;;-59
2020/03/01 09:05:20;;;;;;;0.95;0.90;;;;;;;19.66;38.81;98946.63;;;;-51
2020/03/01 09:08:20;;;;;;;0.83;0.83;;;;;;;19.66;38.85;98934.91;;;;-52
2020/03/01 09:11:20;;;;;;;1.78;1.11;;;;;;;19.68;39.16;98934.70;;;;-52
2020/03/01 09:14:20;;;;;;;1.30;1.06;;;;;;;19.68;39.10;98934.34;;;;-52
2020/03/01 09:17:20;;;;;;;2.15;1.02;;;;;;;19.68;38.97;98947.00;;;;-53
2020/03/01 09:20:20;;;;;;;1.59;0.99;;;;;;;19.70;39.62;98948.78;;;;-53
2020/03/01 09:23:20;;;;;;;1.21;0.99;;;;;;;19.70;39.40;98957.59;;;;-59
2020/03/01 09:26:20;;;;;;;1.30;1.04;;;;;;;19.69;39.25;98957.23;;;;-52
2020/03/01 09:29:20;;;;;;;2.63;1.20;;;;;;;19.70;39.71;98956.48;;;;-50
2020/03/01 09:32:22;;;;;;;3.50;1.29;;;;;;;19.73;39.31;98957.45;;;;-51
2020/03/01 09:35:20;;;;;;;9.53;1.57;;;;;;;19.75;39.73;98942.52;;;;-52
2020/03/01 09:38:20;;;;;;;6.76;1.30;;;;;;;19.76;39.83;98956.02;;;;-52
2020/03/01 09:41:20;;;;;;;3.12;1.28;;;;;;;19.78;39.57;98959.75;;;;-57
2020/03/01 09:44:20;;;;;;;6.45;1.06;;;;;;;19.79;39.60;98960.27;;;;-49
2020/03/01 09:47:20;;;;;;;1.69;1.01;;;;;;;19.80;39.75;98961.70;;;;-49
2020/03/01 09:50:20;;;;;;;1.63;1.07;;;;;;;19.82;39.98;98964.92;;;;-50
2020/03/01 09:53:20;;;;;;;2.88;1.15;;;;;;;19.83;39.37;98971.23;;;;-53
2020/03/01 09:56:20;;;;;;;2.81;1.19;;;;;;;19.84;39.53;98965.30;;;;-53
2020/03/01 09:59:20;;;;;;;3.01;0.99;;;;;;;19.84;39.09;98981.38;;;;-53
2020/03/01 10:02:20;;;;;;;2.40;0.99;;;;;;;19.84;39.10;98977.63;;;;-52
2020/03/01 10:05:20;;;;;;;1.65;1.09;;;;;;;19.83;38.99;98979.27;;;;-53
2020/03/01 10:08:20;;;;;;;2.61;1.17;;;;;;;19.84;38.97;98978.20;;;;-54
2020/03/01 10:11:20;;;;;;;1.67;1.12;;;;;;;19.82;38.87;98969.88;;;;-54
2020/03/01 10:14:20;;;;;;;1.53;1.11;;;;;;;19.83;38.77;98962.59;;;;-54
2020/03/01 10:17:20;;;;;;;4.07;1.16;;;;;;;19.84;38.76;98962.18;;;;-55
2020/03/01 10:20:20;;;;;;;2.53;1.25;;;;;;;19.83;38.74;98974.25;;;;-54
2020/03/01 10:23:20;;;;;;;1.38;1.09;;;;;;;19.83;38.68;98973.82;;;;-55
2020/03/01 10:26:20;;;;;;;1.49;1.08;;;;;;;19.84;38.67;98969.16;;;;-54
2020/03/01 10:29:20;;;;;;;1.34;1.00;;;;;;;19.84;38.62;98970.41;;;;-54
2020/03/01 10:32:20;;;;;;;0.97;0.93;;;;;;;19.85;38.63;98967.73;;;;-54
2020/03/01 10:35:20;;;;;;;2.05;1.10;;;;;;;19.86;38.60;98973.97;;;;-54
2020/03/01 10:38:20;;;;;;;1.39;1.07;;;;;;;19.85;38.48;98971.27;;;;-54
2020/03/01 10:41:20;;;;;;;1.31;0.99;;;;;;;19.85;38.51;98970.91;;;;-54
2020/03/01 10:44:20;;;;;;;1.10;1.06;;;;;;;19.86;38.43;98973.64;;;;-54
2020/03/01 10:47:20;;;;;;;1.12;1.00;;;;;;;19.87;38.45;98970.81;;;;-54
2020/03/01 10:50:20;;;;;;;2.73;1.00;;;;;;;19.88;38.46;98969.06;;;;-54
2020/03/01 10:53:20;;;;;;;2.15;1.01;;;;;;;19.89;38.67;98967.07;;;;-52
2020/03/01 10:56:20;;;;;;;5.54;1.28;;;;;;;19.91;39.13;98970.69;;;;-53
2020/03/01 10:59:20;;;;;;;3.11;1.19;;;;;;;19.93;39.31;98958.50;;;;-56
2020/03/01 11:02:20;;;;;;;1.83;1.09;;;;;;;19.95;39.11;98965.64;;;;-54
2020/03/01 11:05:20;;;;;;;2.23;1.15;;;;;;;19.97;39.14;98966.85;;;;-52
2020/03/01 11:08:20;;;;;;;1.25;0.96;;;;;;;19.99;39.21;98957.64;;;;-52
2020/03/01 11:11:20;;;;;;;1.64;1.11;;;;;;;20.01;39.40;98953.31;;;;-66
2020/03/01 11:14:20;;;;;;;2.15;0.96;;;;;;;20.03;39.42;98954.02;;;;-54
2020/03/01 11:17:20;;;;;;;2.19;1.06;;;;;;;20.04;39.25;98952.97;;;;-55
2020/03/01 11:20:20;;;;;;;2.03;1.00;;;;;;;20.06;39.45;98934.06;;;;-59
2020/03/01 11:23:20;;;;;;;1.95;1.20;;;;;;;20.07;39.25;98937.10;;;;-61
2020/03/01 11:26:20;;;;;;;1.31;1.03;;;;;;;20.08;39.22;98931.90;;;;-62
2020/03/01 11:29:20;;;;;;;1.25;1.03;;;;;;;20.10;39.26;98925.56;;;;-53
2020/03/01 11:35:20;;;;;;;1.23;1.09;;;;;;;20.11;39.00;98905.64;;;;-55
2020/03/01 11:41:20;;;;;;;1.51;1.00;;;;;;;20.11;39.18;98887.13;;;;-50
2020/03/01 11:44:20;;;;;;;1.24;1.05;;;;;;;20.12;39.22;98890.67;;;;-51
2020/03/01 11:47:20;;;;;;;1.27;1.11;;;;;;;20.11;39.04;98872.63;;;;-51
2020/03/01 11:50:20;;;;;;;1.40;1.05;;;;;;;20.12;39.05;98873.14;;;;-51
2020/03/01 11:53:20;;;;;;;2.35;1.00;;;;;;;20.13;39.32;98859.52;;;;-49
2020/03/01 11:56:20;;;;;;;1.25;1.03;;;;;;;20.13;39.36;98847.62;;;;-53
2020/03/01 11:59:20;;;;;;;1.09;0.99;;;;;;;20.14;39.35;98844.27;;;;-52
2020/03/01 12:02:20;;;;;;;2.08;1.09;;;;;;;20.15;39.27;98846.88;;;;-53
2020/03/01 12:05:20;;;;;;;2.24;1.06;;;;;;;20.16;39.30;98845.89;;;;-52
2020/03/01 12:08:20;;;;;;;2.49;1.10;;;;;;;20.14;38.87;98838.98;;;;-52
2020/03/01 12:11:20;;;;;;;2.04;1.05;;;;;;;20.13;38.73;98838.73;;;;-52
2020/03/01 12:14:20;;;;;;;1.16;1.10;;;;;;;20.11;38.61;98839.88;;;;-51
2020/03/01 12:17:20;;;;;;;1.99;1.10;;;;;;;20.10;38.53;98837.41;;;;-53
2020/03/01 12:20:20;;;;;;;0.89;0.89;;;;;;;20.09;38.42;98832.63;;;;-52
2020/03/01 12:23:20;;;;;;;1.37;1.00;;;;;;;20.08;38.41;98824.64;;;;-52
2020/03/01 12:26:20;;;;;;;1.10;1.05;;;;;;;20.08;38.35;98823.48;;;;-52
2020/03/01 12:29:20;;;;;;;1.08;1.01;;;;;;;20.05;38.38;98824.60;;;;-52
2020/03/01 12:32:20;;;;;;;2.47;1.03;;;;;;;20.05;38.52;98807.84;;;;-52
2020/03/01 12:35:20;;;;;;;2.09;1.20;;;;;;;20.01;38.04;98809.14;;;;-44
2020/03/01 12:38:20;;;;;;;1.21;1.11;;;;;;;20.06;38.46;98794.63;;;;-52
2020/03/01 12:41:20;;;;;;;5.19;1.13;;;;;;;20.07;38.78;98791.72;;;;-51
2020/03/01 12:44:20;;;;;;;1.11;0.98;;;;;;;20.07;39.04;98788.02;;;;-48
2020/03/01 12:47:20;;;;;;;2.77;0.99;;;;;;;20.08;38.94;98775.72;;;;-47
2020/03/01 12:50:20;;;;;;;1.56;1.06;;;;;;;20.08;38.92;98769.11;;;;-56
2020/03/01 12:53:20;;;;;;;2.39;1.10;;;;;;;20.09;38.76;98772.80;;;;-56
2020/03/01 12:56:20;;;;;;;2.06;1.11;;;;;;;20.10;38.58;98764.35;;;;-55
2020/03/01 12:59:20;;;;;;;2.81;1.04;;;;;;;20.09;38.50;98755.61;;;;-55
2020/03/01 13:02:20;;;;;;;1.39;0.96;;;;;;;20.09;38.48;98761.48;;;;-55
2020/03/01 13:05:20;;;;;;;2.00;1.06;;;;;;;20.09;38.38;98758.89;;;;-56
2020/03/01 13:08:20;;;;;;;2.26;1.09;;;;;;;20.09;38.34;98759.48;;;;-55
2020/03/01 13:11:20;;;;;;;1.05;0.90;;;;;;;20.09;38.32;98744.06;;;;-55
2020/03/01 13:14:20;;;;;;;1.15;1.05;;;;;;;20.08;38.35;98749.06;;;;-55
2020/03/01 13:17:20;;;;;;;1.79;1.17;;;;;;;20.07;38.24;98745.80;;;;-59
2020/03/01 13:20:20;;;;;;;1.25;0.99;;;;;;;20.07;38.10;98742.52;;;;-59
2020/03/01 13:23:20;;;;;;;1.58;1.12;;;;;;;20.07;38.10;98736.84;;;;-59
2020/03/01 13:26:20;;;;;;;4.33;1.33;;;;;;;20.09;38.32;98736.86;;;;-50
2020/03/01 13:29:20;;;;;;;1.10;0.99;;;;;;;20.09;38.79;98723.95;;;;-50
2020/03/01 13:32:20;;;;;;;1.24;1.10;;;;;;;20.10;38.98;98724.90;;;;-51
2020/03/01 13:35:20;;;;;;;3.39;1.03;;;;;;;20.11;38.58;98726.15;;;;-51
2020/03/01 13:38:20;;;;;;;3.05;1.13;;;;;;;20.12;38.51;98731.30;;;;-51
2020/03/01 13:41:20;;;;;;;2.01;1.05;;;;;;;20.11;38.34;98731.17;;;;-51
2020/03/01 13:44:20;;;;;;;1.28;1.09;;;;;;;20.12;38.43;98728.60;;;;-51
2020/03/01 13:47:20;;;;;;;2.29;1.19;;;;;;;20.13;38.37;98723.33;;;;-51
2020/03/01 13:50:20;;;;;;;0.86;0.84;;;;;;;20.13;38.31;98718.23;;;;-51
2020/03/01 13:53:20;;;;;;;3.09;1.19;;;;;;;20.13;38.36;98716.12;;;;-51
2020/03/01 13:56:20;;;;;;;1.53;1.20;;;;;;;20.13;38.30;98713.44;;;;-51
2020/03/01 13:59:20;;;;;;;1.18;1.04;;;;;;;20.13;38.25;98708.24;;;;-51
2020/03/01 14:02:20;;;;;;;1.10;0.91;;;;;;;20.13;38.21;98698.13;;;;-51
2020/03/01 14:05:20;;;;;;;1.74;1.10;;;;;;;20.13;38.17;98689.58;;;;-51
2020/03/01 14:08:20;;;;;;;1.38;1.10;;;;;;;20.14;38.19;98684.30;;;;-51
2020/03/01 14:11:20;;;;;;;1.07;0.97;;;;;;;20.13;38.27;98677.42;;;;-52
2020/03/01 14:14:20;;;;;;;0.99;0.91;;;;;;;20.13;38.19;98673.33;;;;-52
2020/03/01 14:17:20;;;;;;;1.13;1.00;;;;;;;20.13;38.18;98664.34;;;;-51
2020/03/01 14:20:20;;;;;;;1.42;1.05;;;;;;;20.14;38.17;98656.30;;;;-51
2020/03/01 14:23:20;;;;;;;2.23;1.20;;;;;;;20.14;38.20;98649.28;;;;-52
2020/03/01 14:26:20;;;;;;;2.89;1.04;;;;;;;20.14;38.14;98639.39;;;;-51
2020/03/01 14:29:20;;;;;;;1.09;0.91;;;;;;;20.13;38.13;98628.41;;;;-51
2020/03/01 14:32:20;;;;;;;1.11;1.00;;;;;;;20.13;38.07;98615.58;;;;-51
2020/03/01 14:35:20;;;;;;;1.12;1.04;;;;;;;20.13;38.15;98612.89;;;;-51
2020/03/01 14:38:20;;;;;;;1.07;0.97;;;;;;;20.13;38.14;98613.23;;;;-58
2020/03/01 14:41:20;;;;;;;1.77;1.04;;;;;;;20.13;38.14;98610.48;;;;-59
2020/03/01 14:44:20;;;;;;;1.08;0.98;;;;;;;20.13;38.10;98605.35;;;;-59
2020/03/01 14:47:20;;;;;;;1.03;1.00;;;;;;;20.12;38.09;98600.58;;;;-59
2020/03/01 14:50:20;;;;;;;1.01;0.93;;;;;;;20.12;38.09;98595.28;;;;-59
2020/03/01 14:53:20;;;;;;;0.94;0.94;;;;;;;20.12;38.08;98588.35;;;;-59
2020/03/01 14:56:20;;;;;;;1.10;0.98;;;;;;;20.12;38.08;98578.53;;;;-59
2020/03/01 14:59:20;;;;;;;1.54;0.96;;;;;;;20.13;38.08;98565.91;;;;-59
2020/03/01 15:02:20;;;;;;;1.37;1.00;;;;;;;20.13;38.06;98554.75;;;;-59
2020/03/01 15:05:20;;;;;;;1.02;1.00;;;;;;;20.11;38.06;98534.44;;;;-59
2020/03/01 15:08:20;;;;;;;1.26;1.00;;;;;;;20.13;38.12;98516.47;;;;-59
2020/03/01 15:11:20;;;;;;;2.21;0.97;;;;;;;20.12;38.10;98516.02;;;;-59
2020/03/01 15:14:20;;;;;;;1.09;0.99;;;;;;;20.12;38.09;98516.46;;;;-59
2020/03/01 15:17:20;;;;;;;1.11;1.00;;;;;;;20.12;38.02;98518.05;;;;-59
2020/03/01 15:20:20;;;;;;;1.10;1.00;;;;;;;20.11;38.10;98512.94;;;;-59
2020/03/01 15:23:20;;;;;;;1.14;1.04;;;;;;;20.12;38.10;98506.74;;;;-59
2020/03/01 15:26:20;;;;;;;1.17;1.07;;;;;;;20.11;38.12;98503.22;;;;-58
2020/03/01 15:29:20;;;;;;;0.97;0.97;;;;;;;20.11;38.05;98500.02;;;;-59
2020/03/01 15:32:20;;;;;;;0.80;0.80;;;;;;;20.11;38.08;98491.55;;;;-59
2020/03/01 15:35:20;;;;;;;1.01;0.95;;;;;;;20.10;38.10;98483.66;;;;-59
2020/03/01 15:38:20;;;;;;;0.99;0.99;;;;;;;20.10;38.07;98485.02;;;;-59
2020/03/01 15:41:20;;;;;;;0.93;0.93;;;;;;;20.10;38.13;98476.63;;;;-59
2020/03/01 15:44:20;;;;;;;0.96;0.93;;;;;;;20.09;38.15;98459.46;;;;-59
2020/03/01 15:47:20;;;;;;;1.13;1.03;;;;;;;20.09;38.10;98448.40;;;;-52
2020/03/01 15:50:20;;;;;;;1.17;1.05;;;;;;;20.08;38.34;98445.04;;;;-58
2020/03/01 15:53:20;;;;;;;3.72;1.12;;;;;;;20.03;37.81;98437.36;;;;-53
2020/03/01 15:56:20;;;;;;;6.83;1.26;;;;;;;20.04;38.13;98431.84;;;;-55
2020/03/01 15:59:20;;;;;;;3.65;1.17;;;;;;;20.04;38.41;98421.45;;;;-53
2020/03/01 16:02:20;;;;;;;3.63;1.18;;;;;;;20.04;38.45;98414.00;;;;-51
2020/03/01 16:05:20;;;;;;;1.83;1.17;;;;;;;20.05;38.55;98404.39;;;;-51
2020/03/01 16:08:20;;;;;;;1.34;1.19;;;;;;;20.06;38.53;98395.09;;;;-51
2020/03/01 16:11:20;;;;;;;1.48;1.04;;;;;;;20.06;38.51;98389.88;;;;-53
2020/03/01 16:14:20;;;;;;;1.57;1.11;;;;;;;20.07;38.71;98390.00;;;;-51
2020/03/01 16:17:20;;;;;;;2.33;1.13;;;;;;;20.07;38.53;98383.63;;;;-51
2020/03/01 16:20:20;;;;;;;1.87;1.30;;;;;;;20.07;38.28;98381.12;;;;-54
2020/03/01 16:23:20;;;;;;;1.55;1.21;;;;;;;20.08;38.07;98382.45;;;;-59
2020/03/01 16:26:20;;;;;;;3.24;1.20;;;;;;;20.10;38.06;98380.72;;;;-58
2020/03/01 16:29:20;;;;;;;3.80;1.32;;;;;;;20.12;38.52;98371.91;;;;-60
2020/03/01 16:32:20;;;;;;;4.75;1.37;;;;;;;20.13;38.56;98364.81;;;;-57
2020/03/01 16:35:20;;;;;;;4.20;1.19;;;;;;;20.14;38.49;98354.33;;;;-60
2020/03/01 16:38:20;;;;;;;4.46;1.33;;;;;;;20.15;38.57;98350.16;;;;-60
2020/03/01 16:41:20;;;;;;;2.49;1.15;;;;;;;20.15;38.56;98346.64;;;;-62
2020/03/01 16:44:20;;;;;;;4.79;1.11;;;;;;;20.15;38.37;98329.30;;;;-59
2020/03/01 16:47:20;;;;;;;2.51;1.22;;;;;;;20.16;39.08;98318.90;;;;-55
2020/03/01 16:50:20;;;;;;;3.91;1.31;;;;;;;20.16;38.89;98314.06;;;;-57
2020/03/01 16:53:20;;;;;;;2.37;1.19;;;;;;;20.16;38.76;98306.02;;;;-57
2020/03/01 16:56:20;;;;;;;2.37;1.24;;;;;;;20.17;38.81;98304.09;;;;-59
2020/03/01 16:59:20;;;;;;;4.29;1.17;;;;;;;20.18;38.92;98301.09;;;;-58
2020/03/01 17:02:20;;;;;;;1.63;1.16;;;;;;;20.19;38.93;98301.75;;;;-58
2020/03/01 17:05:20;;;;;;;3.48;1.27;;;;;;;20.21;39.09;98293.72;;;;-60